Mansfield Lahm Regional Airport
KMFD : now visible

Airfield :











YOU CAN JOIN US ON...

 
LOGIN :

Register | Disclaimer

   EN    FR    IT 

 









Legend :    VFR   Marginal VFR   IFR   Intensive IFR   Very Intensive IFR
Visi :
Ceiling :
>= 8 km
>= 3000ft
5 to 8 km
1000 to 3000 ft
1500m to 5 km
500 to 1000 ft
800 to 1500m
200 to 500 ft
< 800m
< 200 ft
Symbols :   Thunderstorms  Fog  Heavy snow  Heavy precipitations  Wind > 20 kt






- Airport Elevation : 1297 ft


KMFD - Mansfield Lahm Regional

CURRENT METAR :
  • 142005Z 27007G17KT 5SM BR BKN010 BKN015 OVC080 04/02 A2956 RMK AO2 CIG 007V012 T00440022

EXPIRED METARs :
  • 141952Z 27007KT 4SM BR BKN009 BKN016 OVC080 04/03 A2956 RMK AO2 CIG 007V013 SLP017 T00440028
  • 141908Z 27009KT 3SM BR BKN005 OVC009 04/03 A2955 RMK AO2 CIG 003V007 T00390028
  • 141852Z 26007KT 2 1/2SM BR OVC004 04/03 A2954 RMK AO2 RAE06 SLP012 P0000 T00390028
  • 141825Z 28007KT 2 1/2SM BR OVC004 03/03 A2954 RMK AO2 RAE06 P0000 T00330028
  • 141752Z 28006KT 3SM -RA BR BKN004 OVC009 03/03 A2955 RMK AO2 CIG 004V007 SLP013 P0004 60019 T00330028 10033 20011 58008

TAF KMFD
Valid from the 14 at 20:00 until the 15 at 18:00 UTC


141958Z 1420/1518 29010G18KT 3SM BR VCSH OVC008
FM142100 28010G18KT P6SM OVC020
FM150300 28012G20KT P6SM OVC008
FM150800 27015G25KT P6SM BKN015
FM151700 26011KT P6SM OVC020



MET'MAP, your aeronautical weather chart ! - Copyright ORBIFLY December 2007 - Disclaimer

ORBIFLY MET'MAP TEAM :

Programming & Development : Alexandra Zaïnal
Concept & original design : Baudouin d'Aumeries
Assistance for programming : Marc-Olivier Méhu
Technical & hardware support : Manuel Goepfert

Contact : metmap@orbifly.com




SOURCES & CREDITS :

   NOAA       Earth
Advisory